METAR Formatted Surface Weather Observation
Issued by NWS

Home | Current Version | Previous Version | Text Only | Print | Product List | Glossary On
Versions: 1 2 3 4 5 6
000
SAUS45 KPSR 020657
MTRFHU
METAR KFHU 020656Z AUTO 17005G22KT 10SM OVC100 14/M01 A3006 RMK AO2
SLP135 T01441011 402110067 $



USA.gov is the U.S. government's official web portal to all federal, state and local government web resources and services.